Time;durP1;ratioP1;P1;durP2;ratioP2;P2;SDS_P1;SDS_P2;PMS_P1;PMS_P2;Temp;Humidity;BMP_temperature;BMP_pressure;BME280_temperature;BME280_humidity;BME280_pressure;Samples;Min_cycle;Max_cycle;Signal;HPM_P1;HPM_P2
2021/10/04 00:00:48;;;;;;;39.83;17.10;;;;;;;12.66;89.09;98835.41;5058166;28;20511;-53
2021/10/04 00:03:14;;;;;;;43.67;22.02;;;;;;;12.91;89.44;98823.09;5058114;28;20074;-53
2021/10/04 00:05:40;;;;;;;10.70;9.38;;;;;;;13.05;89.59;98831.72;5058030;28;20487;-53
2021/10/04 00:08:05;;;;;;;27.67;19.92;;;;;;;13.05;89.21;98834.34;5056764;28;20447;-53
2021/10/04 00:10:31;;;;;;;6.03;2.75;;;;;;;13.11;89.59;98822.16;5058042;28;20502;-53
2021/10/04 00:13:00;;;;;;;7.88;1.75;;;;;;;13.13;89.33;98814.84;5056745;28;20021;-53
2021/10/04 00:15:29;;;;;;;3.25;1.23;;;;;;;13.15;88.91;98815.44;5056733;28;20024;-54
2021/10/04 00:17:55;;;;;;;10.77;3.38;;;;;;;12.99;88.38;98828.09;5057955;28;20024;-53
2021/10/04 00:20:21;;;;;;;3.78;1.20;;;;;;;12.87;88.60;98818.47;5057933;28;20021;-53
2021/10/04 00:22:48;;;;;;;12.32;3.70;;;;;;;12.77;88.59;98816.28;5057997;28;20391;-53
2021/10/04 00:25:14;;;;;;;3.90;1.45;;;;;;;12.74;88.99;98811.47;5056286;28;20017;-54
2021/10/04 00:27:40;;;;;;;6.28;1.52;;;;;;;12.82;89.19;98813.84;5056695;28;20040;-53
2021/10/04 00:30:08;;;;;;;1.33;1.05;;;;;;;12.90;89.08;98816.22;5058000;28;20075;-53
2021/10/04 00:32:36;;;;;;;4.85;1.90;;;;;;;12.92;88.91;98818.66;5057954;28;20498;-53
2021/10/04 00:35:03;;;;;;;3.92;1.10;;;;;;;13.01;89.44;98819.19;5056605;28;20029;-53
2021/10/04 00:37:29;;;;;;;1.98;1.33;;;;;;;12.95;88.83;98821.66;5056463;28;20017;-53
2021/10/04 00:39:54;;;;;;;2.63;0.90;;;;;;;12.74;88.27;98837.78;5057829;28;20025;-53
2021/10/04 00:42:23;;;;;;;2.63;1.10;;;;;;;12.57;88.39;98838.25;5056465;28;20028;-53
2021/10/04 00:44:50;;;;;;;1.70;1.23;;;;;;;12.49;88.33;98843.75;5057805;28;20029;-53
2021/10/04 00:47:16;;;;;;;4.18;1.02;;;;;;;12.46;88.44;98838.13;5056400;28;20086;-53
2021/10/04 00:49:42;;;;;;;2.20;1.27;;;;;;;12.32;87.64;98835.53;5056430;28;20053;-53
2021/10/04 00:52:08;;;;;;;2.80;1.10;;;;;;;12.20;87.80;98837.19;5056362;28;20028;-53
2021/10/04 00:54:34;;;;;;;1.98;1.55;;;;;;;12.14;87.53;98836.19;5054015;28;20082;-53
2021/10/04 00:57:00;;;;;;;4.05;1.90;;;;;;;12.10;88.30;98819.19;5054413;28;20433;-53
2021/10/04 00:59:26;;;;;;;5.53;1.85;;;;;;;12.21;88.52;98803.78;5054477;28;20029;-53
2021/10/04 01:01:52;;;;;;;4.55;1.63;;;;;;;12.29;89.17;98793.81;5054480;28;20029;-53
2021/10/04 01:04:25;;;;;;;7.18;4.55;;;;;;;12.45;89.35;98803.06;5053058;28;20033;-53
2021/10/04 01:06:56;;;;;;;7.75;3.08;;;;;;;12.53;89.20;98800.19;5054338;28;20035;-52
2021/10/04 01:09:24;;;;;;;5.25;2.50;;;;;;;12.55;89.08;98792.09;5054264;28;20111;-53
2021/10/04 01:11:52;;;;;;;9.63;4.95;;;;;;;12.52;89.04;98782.00;5054231;28;20047;-53
2021/10/04 01:14:18;;;;;;;24.27;15.07;;;;;;;12.57;89.32;98787.41;5052859;28;20021;-53
2021/10/04 01:16:44;;;;;;;12.98;6.68;;;;;;;12.61;89.31;98795.72;5052681;28;20059;-53
2021/10/04 01:19:10;;;;;;;3.20;1.98;;;;;;;12.57;89.23;98797.94;5052757;28;20036;-53
2021/10/04 01:21:39;;;;;;;7.03;2.65;;;;;;;12.43;88.65;98789.31;5053998;28;20021;-53
2021/10/04 01:24:07;;;;;;;6.53;4.32;;;;;;;12.35;88.73;98789.53;5054036;28;20025;-53
2021/10/04 01:26:33;;;;;;;5.13;3.47;;;;;;;12.25;88.65;98784.72;5052358;28;20049;-53
2021/10/04 01:28:59;;;;;;;4.38;3.45;;;;;;;12.19;89.10;98798.72;5053941;28;20092;-53
2021/10/04 01:31:25;;;;;;;8.80;2.60;;;;;;;12.31;89.44;98819.94;5053818;28;20025;-53
2021/10/04 01:33:53;;;;;;;5.40;3.17;;;;;;;12.42;89.39;98835.09;5052522;28;20030;-53
2021/10/04 01:36:22;;;;;;;10.43;4.15;;;;;;;12.39;89.49;98841.59;5052302;28;20032;-53
2021/10/04 01:38:47;;;;;;;5.18;4.03;;;;;;;12.36;88.95;98841.19;5052405;28;20014;-54
2021/10/04 01:41:13;;;;;;;2.88;1.70;;;;;;;12.29;88.96;98833.28;5053629;28;20029;-53
2021/10/04 01:43:40;;;;;;;3.22;2.90;;;;;;;12.24;88.84;98830.50;5052386;28;20386;-53
2021/10/04 01:46:05;;;;;;;77.18;69.72;;;;;;;12.15;88.48;98829.09;5053550;28;20036;-53
2021/10/04 01:48:31;;;;;;;22.08;19.92;;;;;;;12.18;88.75;98828.69;5053478;28;20021;-53
2021/10/04 01:50:57;;;;;;;51.95;46.95;;;;;;;12.19;88.77;98823.22;5053462;28;20021;-53
2021/10/04 01:53:23;;;;;;;43.10;38.80;;;;;;;12.21;88.64;98817.72;5052083;28;20442;-53
2021/10/04 01:55:49;;;;;;;56.60;50.58;;;;;;;12.09;88.18;98822.84;5051991;28;20028;-53
2021/10/04 01:58:15;;;;;;;27.55;24.75;;;;;;;11.98;88.25;98819.00;5053358;28;20103;-53
2021/10/04 02:00:41;;;;;;;44.60;40.03;;;;;;;11.92;88.05;98819.03;5051958;28;20546;-53
2021/10/04 02:03:07;;;;;;;139.70;125.47;;;;;;;11.79;88.00;98823.28;5051922;28;20452;-53
2021/10/04 02:05:34;;;;;;;106.15;94.70;;;;;;;11.73;88.68;98810.97;5052843;28;20033;-53
2021/10/04 02:08:00;;;;;;;82.32;71.55;;;;;;;11.74;88.72;98801.25;5053355;28;20056;-53
2021/10/04 02:10:29;;;;;;;266.20;205.82;;;;;;;11.76;88.83;98809.72;5051728;28;20060;-53
2021/10/04 02:12:57;;;;;;;271.67;235.90;;;;;;;11.94;89.88;98806.50;5051705;28;20132;-53
2021/10/04 02:15:23;;;;;;;332.45;297.73;;;;;;;12.19;89.82;98799.53;5052939;28;20528;-53
2021/10/04 02:17:53;;;;;;;205.30;183.35;;;;;;;12.41;90.10;98795.81;5052933;28;20104;-53
2021/10/04 02:20:22;;;;;;;145.38;130.35;;;;;;;12.30;89.23;98794.66;5052922;28;20031;-53
2021/10/04 02:22:47;;;;;;;382.27;342.30;;;;;;;12.36;89.64;98799.06;5051596;28;20024;-53
2021/10/04 02:25:14;;;;;;;537.60;486.17;;;;;;;12.58;89.96;98803.03;5052525;28;20074;-54
2021/10/04 02:27:42;;;;;;;337.13;307.02;;;;;;;12.84;90.28;98806.53;5051528;28;20482;-53
2021/10/04 02:30:15;;;;;;;84.20;75.60;;;;;;;13.13;90.90;98818.28;5052730;28;20304;-53
2021/10/04 02:32:41;;;;;;;66.65;61.03;;;;;;;13.34;90.77;98826.88;5052715;28;20413;-53
2021/10/04 02:35:07;;;;;;;11.55;6.95;;;;;;;13.36;90.52;98823.03;5052644;28;20021;-53
2021/10/04 02:37:33;;;;;;;14.63;8.13;;;;;;;13.18;89.65;98830.84;5051216;28;20035;-54
2021/10/04 02:39:58;;;;;;;4.97;1.92;;;;;;;13.00;89.70;98815.75;5052592;28;20486;-53
2021/10/04 02:42:24;;;;;;;21.73;13.57;;;;;;;12.84;89.20;98811.78;5052511;28;20108;-53
2021/10/04 02:44:50;;;;;;;20.88;18.88;;;;;;;12.73;89.19;98788.75;5052505;28;20021;-53
2021/10/04 02:47:16;;;;;;;8.57;7.32;;;;;;;12.55;88.59;98787.63;5052366;28;20025;-53
2021/10/04 02:49:42;;;;;;;9.20;6.18;;;;;;;12.48;88.76;98788.69;5052376;28;20029;-53
2021/10/04 02:52:10;;;;;;;4.22;1.65;;;;;;;12.39;89.00;98790.75;5051042;28;20021;-53
2021/10/04 02:54:35;;;;;;;3.30;1.05;;;;;;;12.14;88.03;98791.44;5050984;28;20021;-53
2021/10/04 02:57:01;;;;;;;6.65;4.93;;;;;;;11.94;88.06;98781.00;5052150;28;20024;-53
2021/10/04 02:59:28;;;;;;;6.28;3.00;;;;;;;11.88;88.52;98781.00;5050941;28;20113;-53
2021/10/04 03:01:54;;;;;;;10.93;3.72;;;;;;;11.89;88.81;98766.84;5052190;28;20021;-53
2021/10/04 03:04:22;;;;;;;8.77;1.80;;;;;;;12.03;89.36;98784.19;5052083;28;20021;-53
2021/10/04 03:06:49;;;;;;;48.25;28.58;;;;;;;12.10;89.28;98782.38;5050706;28;20028;-53
2021/10/04 03:09:15;;;;;;;12.15;10.27;;;;;;;11.98;89.27;98781.38;5052048;28;20434;-53
2021/10/04 03:11:41;;;;;;;15.25;11.25;;;;;;;11.90;88.82;98779.00;5052040;28;20017;-53
2021/10/04 03:14:07;;;;;;;18.90;9.52;;;;;;;11.84;88.90;98785.84;5051967;28;20079;-53
2021/10/04 03:16:33;;;;;;;12.98;6.25;;;;;;;11.95;89.70;98795.78;5051297;28;20020;-53
2021/10/04 03:18:59;;;;;;;111.72;98.18;;;;;;;12.03;89.54;98799.19;5050653;28;20021;-53
2021/10/04 03:21:24;;;;;;;20.67;11.70;;;;;;;12.08;89.80;98804.63;5051819;28;20495;-53
2021/10/04 03:23:50;;;;;;;18.25;15.93;;;;;;;12.16;89.95;98801.78;5051907;28;20029;-53
2021/10/04 03:26:16;;;;;;;185.65;158.98;;;;;;;12.26;90.10;98794.25;5049986;28;20155;-54
2021/10/04 03:28:41;;;;;;;23.40;17.13;;;;;;;12.39;89.88;98793.38;5051788;28;20448;-53
2021/10/04 03:31:07;;;;;;;26.83;16.27;;;;;;;12.46;90.24;98796.81;5050397;28;20037;-54
2021/10/04 03:33:33;;;;;;;11.73;10.57;;;;;;;12.68;90.85;98786.75;5051753;28;20027;-53
2021/10/04 03:35:59;;;;;;;3.47;1.00;;;;;;;12.71;90.07;98804.75;5051626;28;20025;-53
2021/10/04 03:38:25;;;;;;;8.45;2.97;;;;;;;12.50;89.27;98807.72;5051671;28;20550;-53
2021/10/04 03:40:50;;;;;;;9.05;4.75;;;;;;;12.56;90.32;98814.78;5050326;28;20031;-53
2021/10/04 03:43:16;;;;;;;5.22;3.55;;;;;;;12.80;90.42;98805.34;5051611;28;20025;-53
2021/10/04 03:45:42;;;;;;;1.60;1.10;;;;;;;12.62;89.48;98802.59;5051631;28;20021;-53
2021/10/04 03:48:07;;;;;;;6.45;1.52;;;;;;;12.19;88.50;98804.81;5051560;28;20399;-53
2021/10/04 03:50:33;;;;;;;9.65;4.47;;;;;;;12.25;89.66;98813.66;5050257;28;20029;-53
2021/10/04 03:52:59;;;;;;;12.30;8.50;;;;;;;12.54;91.00;98819.44;5050260;28;20059;-53
2021/10/04 03:55:25;;;;;;;58.03;52.83;;;;;;;12.84;90.96;98843.41;5050168;28;20491;-53
2021/10/04 03:57:51;;;;;;;23.80;21.45;;;;;;;13.03;90.54;98861.94;5051445;28;20017;-53
2021/10/04 04:00:20;;;;;;;8.50;4.47;;;;;;;13.06;90.48;98864.13;5051467;28;20036;-53
2021/10/04 04:02:46;;;;;;;8.25;2.30;;;;;;;13.05;90.30;98870.44;5051462;28;20413;-53
2021/10/04 04:05:12;;;;;;;12.80;7.13;;;;;;;13.00;89.78;98871.09;5051397;28;20036;-53
2021/10/04 04:07:38;;;;;;;4.72;2.65;;;;;;;13.00;90.09;98871.09;5051464;28;20029;-53
2021/10/04 04:10:06;;;;;;;7.93;4.38;;;;;;;13.04;89.91;98866.19;5051350;28;20040;-53
2021/10/04 04:12:32;;;;;;;7.65;1.70;;;;;;;13.13;90.33;98867.56;5051385;28;20517;-52
2021/10/04 04:14:58;;;;;;;37.17;25.38;;;;;;;13.14;90.20;98869.97;5051346;28;20028;-53
2021/10/04 04:17:25;;;;;;;14.63;10.85;;;;;;;13.17;90.01;98864.28;5049946;28;20021;-53
2021/10/04 04:19:51;;;;;;;43.20;29.58;;;;;;;13.20;90.02;98863.06;5050034;28;20403;-53
2021/10/04 04:22:16;;;;;;;11.30;7.03;;;;;;;13.22;90.34;98861.03;5051241;28;20032;-53
2021/10/04 04:24:45;;;;;;;8.50;4.75;;;;;;;13.14;89.98;98877.88;5051289;28;20128;-53
2021/10/04 04:27:11;;;;;;;9.05;6.55;;;;;;;13.05;89.26;98879.16;5050952;28;20045;-53
2021/10/04 04:29:38;;;;;;;2.72;0.90;;;;;;;12.89;89.26;98874.38;5053131;28;20105;-53
2021/10/04 04:32:07;;;;;;;11.02;5.30;;;;;;;12.53;88.49;98879.16;5054921;28;20025;-52
2021/10/04 04:34:32;;;;;;;12.52;5.80;;;;;;;12.41;89.14;98874.78;5053661;28;20021;-53
2021/10/04 04:36:58;;;;;;;7.00;3.80;;;;;;;12.46;89.66;98880.22;5054868;28;20048;-52
2021/10/04 04:39:24;;;;;;;13.98;8.70;;;;;;;12.58;90.13;98873.31;5054847;28;20104;-53
2021/10/04 04:41:50;;;;;;;9.63;4.55;;;;;;;12.67;90.01;98882.56;5054820;28;20376;-52
2021/10/04 04:44:16;;;;;;;5.32;2.35;;;;;;;12.69;90.01;98893.69;5054790;28;20032;-53
2021/10/04 04:46:41;;;;;;;9.23;7.22;;;;;;;12.33;89.12;98894.22;5054710;28;20501;-53
2021/10/04 04:49:07;;;;;;;9.60;3.45;;;;;;;12.41;89.84;98901.09;5053369;28;20117;-53
2021/10/04 04:51:33;;;;;;;5.93;2.75;;;;;;;12.39;89.56;98898.66;5054642;28;20100;-53
2021/10/04 04:53:58;;;;;;;6.53;2.28;;;;;;;12.45;90.45;98894.41;5054594;28;20063;-53
2021/10/04 04:56:24;;;;;;;8.52;7.40;;;;;;;12.54;90.63;98885.25;5053113;28;20494;-53
2021/10/04 04:58:50;;;;;;;6.78;1.80;;;;;;;12.61;90.60;98886.03;5054524;28;20032;-52
2021/10/04 05:01:15;;;;;;;27.23;13.65;;;;;;;12.64;90.24;98884.84;5053127;28;20033;-52
2021/10/04 05:03:41;;;;;;;14.85;12.63;;;;;;;12.67;90.68;98889.66;5053122;28;20032;-53
2021/10/04 05:06:07;;;;;;;144.30;130.52;;;;;;;12.72;90.79;98901.19;5054331;28;20117;-53
2021/10/04 05:08:32;;;;;;;14.02;9.65;;;;;;;12.73;90.56;98909.91;5054308;28;20455;-53
2021/10/04 05:10:58;;;;;;;5.50;3.47;;;;;;;12.76;90.60;98915.56;5052985;28;20090;-52
2021/10/04 05:13:24;;;;;;;17.13;8.40;;;;;;;12.69;90.43;98903.44;5053199;28;20116;-53
2021/10/04 05:15:50;;;;;;;11.20;4.00;;;;;;;12.76;90.74;98914.75;5052804;28;20123;-53
2021/10/04 05:18:18;;;;;;;11.48;10.25;;;;;;;12.68;90.29;98931.59;5054185;28;20479;-53
2021/10/04 05:20:47;;;;;;;19.23;13.68;;;;;;;12.56;89.92;98936.69;5054147;28;20032;-54
2021/10/04 05:23:12;;;;;;;15.18;3.75;;;;;;;12.47;89.74;98926.59;5052810;28;20017;-53
2021/10/04 05:25:39;;;;;;;39.28;5.75;;;;;;;12.43;90.21;98920.91;5052235;28;20490;-53
2021/10/04 05:28:05;;;;;;;10.85;4.38;;;;;;;12.30;89.65;98894.66;5054025;28;20036;-53
2021/10/04 05:30:33;;;;;;;11.35;4.43;;;;;;;12.40;90.16;98910.81;5053936;28;20021;-53
2021/10/04 05:33:00;;;;;;;12.68;6.57;;;;;;;12.54;90.95;98909.75;5053917;28;20033;-53
2021/10/04 05:35:26;;;;;;;8.10;5.05;;;;;;;12.64;90.72;98922.50;5053811;28;20025;-54
2021/10/04 05:37:52;;;;;;;58.15;51.35;;;;;;;12.65;90.75;98929.34;5052392;28;20021;-53
2021/10/04 05:40:17;;;;;;;16.13;5.80;;;;;;;12.68;90.67;98942.13;5052997;28;20028;-53
2021/10/04 05:42:43;;;;;;;13.70;3.67;;;;;;;12.69;90.53;98959.53;5053732;28;20021;-53
2021/10/04 05:45:11;;;;;;;2.78;2.38;;;;;;;12.59;90.12;98956.53;5052287;28;20535;-53
2021/10/04 05:47:38;;;;;;;7.45;3.70;;;;;;;12.32;89.62;98951.31;5053597;28;20028;-53
2021/10/04 05:50:05;;;;;;;6.40;3.50;;;;;;;12.32;90.12;98958.41;5053532;28;20051;-53
2021/10/04 05:52:31;;;;;;;12.88;7.72;;;;;;;12.34;90.26;98959.00;5053503;28;20071;-53
2021/10/04 05:54:57;;;;;;;9.68;5.10;;;;;;;12.53;90.81;98952.88;5052149;28;20029;-53
2021/10/04 05:57:22;;;;;;;13.27;5.93;;;;;;;12.50;90.58;98958.56;5051997;28;20047;-53
2021/10/04 05:59:48;;;;;;;9.27;4.97;;;;;;;12.61;90.69;98965.03;5053375;28;20048;-53
2021/10/04 06:02:14;;;;;;;19.90;7.00;;;;;;;12.65;90.50;98968.06;5053295;28;20025;-53
2021/10/04 06:04:40;;;;;;;34.40;30.35;;;;;;;12.71;90.47;98960.13;5052022;28;20506;-54
2021/10/04 06:07:06;;;;;;;14.55;10.32;;;;;;;12.70;90.49;98965.63;5053205;28;20096;-53
2021/10/04 06:09:32;;;;;;;9.80;6.32;;;;;;;12.72;90.32;98960.97;5051912;28;20265;-53
2021/10/04 06:11:57;;;;;;;18.30;7.93;;;;;;;12.70;90.55;98966.44;5053079;28;20069;-54
2021/10/04 06:14:26;;;;;;;5.72;4.30;;;;;;;12.78;90.50;98973.31;5053091;28;20526;-53
2021/10/04 06:16:53;;;;;;;20.92;7.93;;;;;;;12.81;90.63;98980.78;5052955;28;20075;-53
2021/10/04 06:19:19;;;;;;;30.98;8.85;;;;;;;12.82;90.68;98976.31;5052993;28;20506;-54
2021/10/04 06:21:45;;;;;;;52.33;47.13;;;;;;;12.90;90.57;98976.91;5051654;28;20025;-53
2021/10/04 06:24:10;;;;;;;19.30;9.20;;;;;;;12.89;90.60;98988.44;5052874;28;20458;-53
2021/10/04 06:26:36;;;;;;;6.95;4.72;;;;;;;12.99;90.75;98985.38;5051233;28;20071;-53
2021/10/04 06:29:03;;;;;;;11.68;4.50;;;;;;;13.00;90.58;98973.84;5052777;28;20056;-53
2021/10/04 06:31:28;;;;;;;70.40;38.85;;;;;;;12.92;90.29;98966.97;5052746;28;20029;-53
2021/10/04 06:33:54;;;;;;;15.57;3.83;;;;;;;13.01;90.49;98958.81;5051399;28;20179;-53
2021/10/04 06:36:20;;;;;;;14.63;5.22;;;;;;;13.06;90.68;98959.00;5051249;28;20025;-54
2021/10/04 06:38:46;;;;;;;19.58;8.02;;;;;;;12.95;89.76;98966.53;5052621;28;20029;-53
2021/10/04 06:41:11;;;;;;;14.70;13.07;;;;;;;12.71;89.83;98978.56;5052560;28;20104;-54
2021/10/04 06:43:37;;;;;;;16.30;5.95;;;;;;;12.86;90.39;98991.50;5051197;28;20407;-53
2021/10/04 06:46:07;;;;;;;29.45;14.48;;;;;;;13.03;90.63;99005.00;5052391;28;20028;-54
2021/10/04 06:48:38;;;;;;;20.92;5.53;;;;;;;12.98;89.92;99018.81;5051357;28;20032;-54
2021/10/04 06:51:04;;;;;;;6.25;4.25;;;;;;;12.69;88.85;99004.28;5052261;28;20103;-54
2021/10/04 06:53:30;;;;;;;17.73;6.97;;;;;;;12.52;89.18;98990.78;5051835;28;20052;-54
2021/10/04 06:55:55;;;;;;;15.75;8.18;;;;;;;12.56;89.34;98985.91;5052252;28;20061;-53
2021/10/04 06:58:21;;;;;;;563.78;502.45;;;;;;;12.71;90.18;98978.56;5050964;28;20447;-53
2021/10/04 07:00:47;;;;;;;349.25;313.13;;;;;;;12.81;90.00;98980.78;5052208;28;20052;-54
2021/10/04 07:03:13;;;;;;;240.30;219.05;;;;;;;12.76;90.07;98980.59;5050819;28;20402;-54
2021/10/04 07:05:39;;;;;;;141.48;128.77;;;;;;;12.67;89.41;98984.47;5052121;28;20103;-53
2021/10/04 07:08:05;;;;;;;154.45;140.68;;;;;;;12.63;89.84;98978.78;5052057;28;20028;-53
2021/10/04 07:10:31;;;;;;;47.15;33.28;;;;;;;12.93;90.47;98979.09;5051042;28;20025;-53
2021/10/04 07:12:57;;;;;;;35.05;9.35;;;;;;;13.22;91.02;98970.88;5051996;28;20031;-54
2021/10/04 07:15:22;;;;;;;24.77;6.68;;;;;;;13.14;90.12;98969.31;5051977;28;20063;-53
2021/10/04 07:17:48;;;;;;;22.88;6.85;;;;;;;12.92;89.08;98981.97;5051905;28;20160;-53
2021/10/04 07:20:14;;;;;;;29.00;3.67;;;;;;;12.83;89.17;98996.38;5051903;28;20485;-53
2021/10/04 07:22:41;;;;;;;16.67;3.13;;;;;;;12.92;89.89;99005.69;5051922;28;20529;-54
2021/10/04 07:25:08;;;;;;;25.00;3.80;;;;;;;13.03;89.73;99014.75;5051809;28;20025;-53
2021/10/04 07:27:35;;;;;;;28.85;5.55;;;;;;;13.06;89.64;99017.78;5050321;28;20049;-53
2021/10/04 07:30:00;;;;;;;27.80;3.00;;;;;;;13.11;89.09;99011.88;5050438;28;20112;-53
2021/10/04 07:32:26;;;;;;;16.10;3.40;;;;;;;13.08;88.98;99005.22;5051801;28;20132;-53
2021/10/04 07:34:52;;;;;;;8.32;1.80;;;;;;;13.13;89.35;99008.00;5051736;28;20025;-53
2021/10/04 07:37:18;;;;;;;13.85;1.48;;;;;;;13.24;89.58;99006.56;5051581;28;20029;-53
2021/10/04 07:39:43;;;;;;;14.88;3.53;;;;;;;13.26;89.04;99007.16;5050380;28;20029;-53
2021/10/04 07:42:09;;;;;;;6.03;1.40;;;;;;;13.20;88.98;99005.38;5051601;28;20434;-53
2021/10/04 07:44:35;;;;;;;25.98;23.77;;;;;;;13.11;89.23;99007.41;5051641;28;20541;-53
2021/10/04 07:47:02;;;;;;;16.35;14.77;;;;;;;13.07;89.01;99010.69;5051613;28;20037;-53
2021/10/04 07:49:29;;;;;;;5.30;3.55;;;;;;;13.04;89.28;99014.56;5051691;28;20024;-53
2021/10/04 07:51:58;;;;;;;2.67;1.40;;;;;;;12.93;88.93;99012.56;5050207;28;20473;-53
2021/10/04 07:54:24;;;;;;;4.40;2.50;;;;;;;12.78;88.37;99004.91;5051513;28;20104;-53
2021/10/04 07:56:50;;;;;;;4.03;1.60;;;;;;;12.76;88.61;99015.63;5051460;28;20021;-53
2021/10/04 07:59:16;;;;;;;13.40;9.70;;;;;;;12.81;88.94;99022.91;5050247;28;20021;-53
2021/10/04 08:01:42;;;;;;;13.63;3.63;;;;;;;12.93;89.32;99020.44;5051523;28;20445;-53
2021/10/04 08:04:08;;;;;;;10.60;4.30;;;;;;;13.05;89.59;99028.53;5054086;28;20029;-53
2021/10/04 08:06:33;;;;;;;8.75;4.57;;;;;;;13.13;89.37;99042.28;5055491;28;20114;-53
2021/10/04 08:08:59;;;;;;;6.20;5.18;;;;;;;13.09;89.00;99046.34;5054116;28;20025;-53
2021/10/04 08:11:25;;;;;;;5.78;2.67;;;;;;;13.14;88.99;99036.00;5055456;28;20032;-53
2021/10/04 08:13:51;;;;;;;5.38;4.60;;;;;;;13.15;88.45;99036.81;5054070;28;20116;-53
2021/10/04 08:16:20;;;;;;;3.78;2.58;;;;;;;13.10;88.47;99021.63;5055228;28;20552;-53
2021/10/04 08:18:45;;;;;;;8.80;5.47;;;;;;;13.20;89.14;99018.56;5055446;28;20473;-52
2021/10/04 08:21:13;;;;;;;5.85;4.15;;;;;;;13.39;89.29;99020.31;5053934;28;20155;-53
2021/10/04 08:23:38;;;;;;;9.27;3.75;;;;;;;13.38;89.10;99018.69;5055201;28;20021;-53
2021/10/04 08:26:05;;;;;;;13.23;7.38;;;;;;;13.27;88.80;99018.50;5053473;28;20507;-52
2021/10/04 08:28:32;;;;;;;6.28;4.18;;;;;;;13.33;89.24;99013.22;5055145;28;20029;-53
2021/10/04 08:30:58;;;;;;;10.50;2.55;;;;;;;13.35;88.83;99013.84;5055050;28;20036;-53
2021/10/04 08:33:23;;;;;;;9.98;2.25;;;;;;;13.37;88.72;99011.00;5055039;28;20029;-52
2021/10/04 08:35:49;;;;;;;12.73;7.32;;;;;;;13.22;88.23;99013.03;5053595;28;20395;-51
2021/10/04 08:38:15;;;;;;;21.02;16.63;;;;;;;13.20;88.76;99010.66;5053600;28;20465;-52
2021/10/04 08:40:41;;;;;;;15.93;6.82;;;;;;;13.33;89.15;99015.06;5053514;28;20025;-52
2021/10/04 08:43:07;;;;;;;18.73;7.57;;;;;;;13.26;88.30;99001.91;5053466;28;20493;-52
2021/10/04 08:45:36;;;;;;;30.13;7.97;;;;;;;13.32;89.50;99009.00;5054799;28;20096;-51
2021/10/04 08:48:03;;;;;;;26.75;9.07;;;;;;;13.42;89.23;99005.91;5053445;28;20430;-51
2021/10/04 08:50:31;;;;;;;23.77;8.48;;;;;;;13.18;88.65;99002.13;5054665;28;20021;-52
2021/10/04 08:52:59;;;;;;;7.82;3.83;;;;;;;13.35;89.58;98997.22;5054634;28;20415;-52
2021/10/04 08:55:25;;;;;;;24.05;21.00;;;;;;;13.28;89.34;98988.50;5054591;28;20021;-52
2021/10/04 08:57:51;;;;;;;27.52;6.00;;;;;;;13.23;89.08;98977.78;5053142;28;20082;-52
2021/10/04 09:00:17;;;;;;;9.23;3.80;;;;;;;13.17;88.79;98971.53;5054498;28;20021;-51
2021/10/04 09:02:43;;;;;;;22.20;4.03;;;;;;;13.13;89.38;98973.75;5054477;28;20509;-51
2021/10/04 09:05:25;;;;;;;22.33;5.10;;;;;;;13.24;89.40;98961.75;5053067;28;20112;-52
2021/10/04 09:08:10;;;;;;;21.02;6.55;;;;;;;13.25;89.43;98971.28;5054361;28;20487;-52
2021/10/04 09:10:39;;;;;;;13.10;3.23;;;;;;;13.31;89.52;98978.38;5054382;28;20108;-51
2021/10/04 09:13:08;;;;;;;43.65;14.60;;;;;;;13.52;90.17;98979.06;5052911;28;20490;-52
2021/10/04 09:15:44;;;;;;;14.48;5.63;;;;;;;13.72;90.23;98981.56;5053117;28;20025;-52
2021/10/04 09:18:15;;;;;;;8.70;2.80;;;;;;;13.75;89.57;98981.97;5054130;28;20048;-52
2021/10/04 09:20:56;;;;;;;7.45;2.45;;;;;;;13.54;89.22;98988.41;5054123;28;20506;-52
2021/10/04 09:23:45;;;;;;;14.05;4.63;;;;;;;13.71;90.25;98991.31;5054130;28;20025;-52
2021/10/04 09:26:32;;;;;;;21.73;10.75;;;;;;;13.91;90.26;98991.19;5053869;28;20526;-52
2021/10/04 09:29:07;;;;;;;36.45;10.93;;;;;;;14.10;90.49;98986.78;5054019;28;20025;-52
2021/10/04 09:31:39;;;;;;;22.75;7.57;;;;;;;14.21;90.45;98982.63;5053926;28;20511;-51
2021/10/04 09:34:23;;;;;;;16.77;9.60;;;;;;;14.25;90.09;98983.81;5053895;28;20060;-52
2021/10/04 09:36:53;;;;;;;13.93;3.92;;;;;;;14.31;90.17;98974.22;5053772;28;20406;-52
2021/10/04 09:39:18;;;;;;;7.88;3.78;;;;;;;14.27;89.95;98973.84;5053822;28;20032;-52
2021/10/04 09:42:02;;;;;;;122.90;10.43;;;;;;;14.32;90.06;98962.63;5052381;28;20029;-52
2021/10/04 09:44:58;;;;;;;45.35;30.95;;;;;;;14.24;89.70;98957.63;5052381;28;20608;-52
2021/10/04 09:47:28;;;;;;;7.35;5.20;;;;;;;14.18;89.44;98952.22;5052383;28;20037;-52
2021/10/04 09:50:04;;;;;;;9.10;4.45;;;;;;;14.10;89.73;98947.19;5053931;28;20029;-52
2021/10/04 09:52:41;;;;;;;16.75;14.38;;;;;;;14.08;89.51;98946.59;5052314;28;20029;-52
2021/10/04 09:55:30;;;;;;;43.50;17.92;;;;;;;14.22;90.32;98920.88;5053479;28;20021;-52
2021/10/04 09:58:02;;;;;;;11.82;4.97;;;;;;;14.42;90.29;98922.53;5051996;28;20082;-52
2021/10/04 10:00:49;;;;;;;8.63;3.58;;;;;;;14.56;90.64;98916.91;5053464;28;20079;-52
2021/10/04 10:03:18;;;;;;;7.65;4.13;;;;;;;14.63;90.48;98908.91;5053036;28;20574;-52
2021/10/04 10:05:47;;;;;;;8.52;3.28;;;;;;;14.58;90.08;98901.63;5053194;28;20070;-52
2021/10/04 10:08:14;;;;;;;9.45;4.25;;;;;;;14.47;89.86;98896.28;5051934;28;20036;-52
2021/10/04 10:10:45;;;;;;;8.63;3.50;;;;;;;14.34;89.76;98897.22;5053215;28;20017;-52
2021/10/04 10:13:14;;;;;;;4.60;2.58;;;;;;;14.25;89.71;98894.06;5053223;28;20498;-52
2021/10/04 10:15:44;;;;;;;4.30;2.70;;;;;;;14.12;89.38;98892.34;5053109;28;20104;-52
2021/10/04 10:18:52;;;;;;;13.00;5.05;;;;;;;13.99;89.65;98890.66;5053076;28;20083;-53
2021/10/04 10:21:29;;;;;;;8.25;3.50;;;;;;;14.00;90.12;98891.44;5049896;28;20036;-53
2021/10/04 10:23:59;;;;;;;54.78;27.13;;;;;;;13.96;90.10;98888.47;5052915;28;20163;-53
2021/10/04 10:26:32;;;;;;;28.05;23.08;;;;;;;14.00;90.00;98888.81;5051069;28;20053;-53
2021/10/04 10:29:12;;;;;;;17.38;8.65;;;;;;;14.10;90.28;98885.69;5052883;28;20059;-52
2021/10/04 10:31:50;;;;;;;17.40;5.88;;;;;;;14.15;90.56;98878.72;5053359;28;20061;-53
2021/10/04 10:34:27;;;;;;;28.33;13.85;;;;;;;14.13;90.35;98880.78;5052727;28;20017;-52
2021/10/04 10:37:04;;;;;;;41.35;36.88;;;;;;;14.04;90.23;98887.34;5052573;28;20059;-53
2021/10/04 10:39:35;;;;;;;29.17;22.25;;;;;;;14.20;90.88;98885.97;5052642;28;20053;-53
2021/10/04 10:42:20;;;;;;;78.90;71.35;;;;;;;14.40;91.13;98888.41;5052646;28;20029;-53
2021/10/04 10:44:58;;;;;;;9.27;8.38;;;;;;;14.53;91.19;98880.34;5052577;28;20480;-52
2021/10/04 10:47:38;;;;;;;24.88;20.20;;;;;;;14.57;90.89;98875.47;5052758;28;20058;-53
2021/10/04 10:50:07;;;;;;;20.85;16.63;;;;;;;14.54;90.45;98873.22;5052429;28;20021;-52
2021/10/04 10:52:36;;;;;;;15.52;7.57;;;;;;;14.47;90.33;98865.41;5052470;28;20115;-52
2021/10/04 10:55:21;;;;;;;8.75;6.40;;;;;;;14.46;90.51;98868.25;5052336;28;20031;-51
2021/10/04 10:57:59;;;;;;;21.40;13.70;;;;;;;14.45;90.61;98871.94;5052102;28;20025;-53
2021/10/04 11:00:26;;;;;;;9.23;3.58;;;;;;;14.41;90.02;98873.38;5052175;28;20032;-52
2021/10/04 11:02:59;;;;;;;40.08;36.15;;;;;;;14.24;89.93;98867.88;5052242;28;20044;-53
2021/10/04 11:05:46;;;;;;;10.93;4.97;;;;;;;14.32;90.55;98886.06;5050977;28;20025;-53
2021/10/04 11:08:21;;;;;;;14.40;12.65;;;;;;;14.53;90.97;98898.03;5052207;28;20066;-53
2021/10/04 11:10:49;;;;;;;;;;;;;;;14.66;90.90;98900.53;5051189;28;20024;-53
2021/10/04 11:13:15;;;;;;;23.45;17.83;;;;;;;14.70;90.75;98909.63;5052048;28;19908;-53
2021/10/04 11:15:42;;;;;;;4.13;3.65;;;;;;;14.68;90.59;98913.53;5051950;28;20055;-53
2021/10/04 11:18:09;;;;;;;5.22;3.53;;;;;;;14.41;89.88;98916.44;5051894;28;20025;-53
2021/10/04 11:20:37;;;;;;;10.52;5.43;;;;;;;14.16;89.69;98919.13;5051994;28;20511;-52
2021/10/04 11:23:06;;;;;;;17.50;10.88;;;;;;;14.04;89.63;98924.28;5051926;28;20025;-53
2021/10/04 11:25:49;;;;;;;36.05;32.45;;;;;;;14.05;90.11;98920.66;5051521;28;20033;-53
2021/10/04 11:28:20;;;;;;;11.05;6.35;;;;;;;14.10;90.24;98909.44;5051922;28;20398;-53